Time;durP1;ratioP1;P1;durP2;ratioP2;P2;SDS_P1;SDS_P2;PMS_P1;PMS_P2;Temp;Humidity;BMP_temperature;BMP_pressure;BME280_temperature;BME280_humidity;BME280_pressure;Samples;Min_cycle;Max_cycle;Signal;HPM_P1;HPM_P2
2023/05/11 00:01:33;;;;;;;69.03;35.78;;;15.70;99.90;;;;;;5052287;28;20434;-71
2023/05/11 00:03:59;;;;;;;61.47;30.77;;;15.60;99.90;;;;;;5049938;28;20020;-72
2023/05/11 00:06:25;;;;;;;60.13;33.47;;;15.60;99.90;;;;;;5054251;28;20045;-71
2023/05/11 00:08:51;;;;;;;69.30;37.05;;;15.70;99.90;;;;;;5047488;28;20052;-72
2023/05/11 00:11:20;;;;;;;76.43;40.53;;;15.60;99.90;;;;;;5048460;28;20380;-72
2023/05/11 00:13:45;;;;;;;57.40;35.38;;;15.60;99.90;;;;;;5049128;28;20032;-71
2023/05/11 00:16:12;;;;;;;60.70;37.00;;;15.60;99.90;;;;;;5047129;28;20041;-72
2023/05/11 00:18:37;;;;;;;54.45;34.13;;;15.60;99.90;;;;;;5031773;28;20032;-71
2023/05/11 00:21:03;;;;;;;53.33;32.97;;;15.60;99.90;;;;;;5051029;28;20377;-71
2023/05/11 00:23:29;;;;;;;52.33;32.45;;;15.60;99.90;;;;;;5047920;28;20389;-71
2023/05/11 00:25:55;;;;;;;50.00;30.63;;;15.60;99.90;;;;;;5049957;28;20488;-71
2023/05/11 00:28:21;;;;;;;47.85;29.67;;;15.60;99.90;;;;;;5049408;28;20032;-71
2023/05/11 00:30:47;;;;;;;45.33;30.38;;;15.60;99.90;;;;;;5034692;28;20487;-71
2023/05/11 00:33:13;;;;;;;44.63;28.70;;;15.50;99.90;;;;;;5049898;28;20084;-71
2023/05/11 00:35:39;;;;;;;55.47;30.77;;;15.50;99.90;;;;;;5050406;28;20040;-71
2023/05/11 00:38:05;;;;;;;57.58;30.30;;;15.50;99.90;;;;;;5048181;28;20032;-71
2023/05/11 00:40:31;;;;;;;61.80;30.20;;;15.60;99.90;;;;;;5052948;28;20503;-71
2023/05/11 00:42:57;;;;;;;49.15;29.08;;;15.60;99.90;;;;;;5055617;28;20033;-72
2023/05/11 00:45:23;;;;;;;42.33;26.48;;;15.60;99.90;;;;;;5033254;28;20024;-72
2023/05/11 00:47:49;;;;;;;45.58;26.70;;;15.60;99.90;;;;;;5047529;28;20060;-74
2023/05/11 00:50:17;;;;;;;44.20;26.20;;;15.50;99.90;;;;;;5052164;28;20393;-72
2023/05/11 00:52:43;;;;;;;45.58;26.05;;;15.50;99.90;;;;;;5048095;28;20047;-72
2023/05/11 00:55:10;;;;;;;43.80;26.77;;;15.50;99.90;;;;;;5052819;28;20035;-71
2023/05/11 00:57:37;;;;;;;50.53;26.27;;;15.50;99.90;;;;;;5050705;28;20035;-71
2023/05/11 01:00:04;;;;;;;47.05;27.15;;;15.50;99.90;;;;;;5047538;28;20071;-71
2023/05/11 01:02:30;;;;;;;43.78;23.45;;;15.50;99.90;;;;;;5049271;28;20108;-72
2023/05/11 01:04:56;;;;;;;44.10;25.42;;;15.40;99.90;;;;;;5046799;28;20032;-72
2023/05/11 01:07:28;;;;;;;42.83;24.23;;;15.40;99.90;;;;;;5051011;28;20021;-71
2023/05/11 01:09:53;;;;;;;39.72;22.95;;;15.40;99.90;;;;;;5051332;28;20155;-71
2023/05/11 01:12:27;;;;;;;45.20;24.77;;;15.40;99.90;;;;;;5053838;28;20446;-71
2023/05/11 01:15:02;;;;;;;42.92;24.00;;;15.40;99.90;;;;;;5048669;28;20048;-71
2023/05/11 01:17:47;;;;;;;47.08;25.42;;;15.40;99.90;;;;;;5050229;28;20536;-72
2023/05/11 01:20:20;;;;;;;43.72;23.88;;;15.40;99.90;;;;;;5036167;28;20028;-72
2023/05/11 01:23:06;;;;;;;44.38;24.42;;;15.40;99.90;;;;;;5048082;28;20033;-71
2023/05/11 01:25:49;;;;;;;51.63;28.00;;;15.30;99.90;;;;;;5050091;28;20036;-72
2023/05/11 01:28:36;;;;;;;44.67;25.27;;;15.30;99.90;;;;;;5049512;28;20112;-71
2023/05/11 01:31:05;;;;;;;42.35;24.85;;;15.20;99.90;;;;;;5049479;28;20111;-73
2023/05/11 01:33:32;;;;;;;44.28;25.58;;;15.20;99.90;;;;;;5050563;28;20028;-71
2023/05/11 01:36:06;;;;;;;146.38;40.17;;;15.30;99.90;;;;;;5047473;28;20025;-72
2023/05/11 01:38:36;;;;;;;39.03;24.88;;;15.20;99.90;;;;;;5048792;28;20473;-71
2023/05/11 01:41:11;;;;;;;55.95;28.15;;;15.10;99.90;;;;;;5051449;28;20029;-72
2023/05/11 01:43:38;;;;;;;98.22;29.85;;;15.10;99.90;;;;;;5053066;28;20024;-71
2023/05/11 01:46:06;;;;;;;51.80;24.02;;;15.00;99.90;;;;;;5057299;28;20028;-71
2023/05/11 01:48:37;;;;;;;53.15;25.25;;;15.10;99.90;;;;;;5053365;28;20382;-71
2023/05/11 01:51:03;;;;;;;47.03;24.42;;;15.10;99.90;;;;;;5044382;28;20009;-73
2023/05/11 01:53:34;;;;;;;62.33;27.13;;;15.10;99.90;;;;;;5057383;28;20070;-72
2023/05/11 01:56:01;;;;;;;66.30;29.10;;;15.10;99.90;;;;;;5058678;28;20033;-71
2023/05/11 01:58:28;;;;;;;71.22;29.63;;;15.00;99.90;;;;;;5059386;28;20025;-74
2023/05/11 02:00:54;;;;;;;59.80;26.73;;;14.90;99.90;;;;;;5061870;28;20028;-71
2023/05/11 02:03:21;;;;;;;43.95;23.95;;;14.80;99.90;;;;;;5059074;28;20607;-75
2023/05/11 02:05:49;;;;;;;105.53;34.08;;;14.90;99.90;;;;;;5065525;28;20104;-71
2023/05/11 02:08:17;;;;;;;40.00;23.50;;;14.80;99.90;;;;;;5060511;28;20021;-71
2023/05/11 02:10:46;;;;;;;42.47;25.77;;;14.80;99.90;;;;;;5064672;28;20063;-72
2023/05/11 02:13:13;;;;;;;57.47;25.08;;;14.90;99.90;;;;;;5059496;28;20384;-72
2023/05/11 02:15:41;;;;;;;43.47;23.98;;;14.90;99.90;;;;;;5064519;28;20046;-72
2023/05/11 02:18:11;;;;;;;41.22;23.55;;;14.80;99.90;;;;;;5055697;28;20091;-73
2023/05/11 02:20:40;;;;;;;36.63;22.20;;;14.90;99.90;;;;;;5064391;28;20445;-71
2023/05/11 02:23:07;;;;;;;42.78;23.08;;;14.90;99.90;;;;;;5053907;28;20040;-72
2023/05/11 02:25:33;;;;;;;35.10;21.45;;;15.00;99.90;;;;;;5063445;28;20055;-75
2023/05/11 02:28:00;;;;;;;41.65;22.27;;;15.00;99.90;;;;;;5059102;28;20023;-74
2023/05/11 02:30:28;;;;;;;37.85;21.90;;;14.90;99.90;;;;;;5058820;28;20082;-72
2023/05/11 02:32:56;;;;;;;40.08;21.77;;;14.90;99.90;;;;;;5044507;28;20115;-72
2023/05/11 02:35:28;;;;;;;52.03;25.73;;;14.90;99.90;;;;;;5041546;28;20049;-71
2023/05/11 02:37:57;;;;;;;36.75;21.52;;;14.90;99.90;;;;;;5058140;28;20485;-72
2023/05/11 02:40:38;;;;;;;35.92;22.52;;;14.90;99.90;;;;;;5056313;28;20040;-73
2023/05/11 02:43:13;;;;;;;35.65;21.95;;;14.80;99.90;;;;;;5065759;28;20031;-72
2023/05/11 02:45:43;;;;;;;35.10;20.70;;;14.80;99.90;;;;;;5047599;28;20069;-71
2023/05/11 02:48:18;;;;;;;33.28;20.25;;;14.80;99.90;;;;;;5064682;28;20041;-71
2023/05/11 02:50:44;;;;;;;39.80;23.20;;;14.80;99.90;;;;;;5055247;28;20483;-71
2023/05/11 02:53:15;;;;;;;36.58;23.05;;;14.80;99.90;;;;;;5036685;28;20024;-71
2023/05/11 02:55:41;;;;;;;42.05;24.98;;;14.70;99.90;;;;;;5056888;28;20120;-71
2023/05/11 02:58:07;;;;;;;35.08;22.40;;;14.70;99.90;;;;;;5058363;28;20017;-71
2023/05/11 03:00:33;;;;;;;33.40;21.05;;;14.70;99.90;;;;;;5057434;28;20074;-72
2023/05/11 03:03:00;;;;;;;36.28;21.58;;;14.70;99.90;;;;;;5059408;28;20029;-72
2023/05/11 03:05:25;;;;;;;38.88;23.42;;;14.60;99.90;;;;;;5053972;28;20032;-71
2023/05/11 03:07:57;;;;;;;46.92;23.58;;;14.60;99.90;;;;;;5044228;28;20159;-75
2023/05/11 03:10:25;;;;;;;48.63;24.77;;;14.60;99.90;;;;;;5038106;28;20114;-72
2023/05/11 03:12:51;;;;;;;46.35;24.25;;;14.50;99.90;;;;;;5061943;28;20294;-71
2023/05/11 03:15:19;;;;;;;42.55;23.10;;;14.60;99.90;;;;;;5055699;28;20393;-72
2023/05/11 03:17:45;;;;;;;40.22;23.20;;;14.50;99.90;;;;;;5062340;28;20430;-71
2023/05/11 03:20:11;;;;;;;36.72;21.90;;;14.50;99.90;;;;;;5054840;28;20020;-77
2023/05/11 03:22:38;;;;;;;38.95;22.77;;;14.50;99.90;;;;;;5064371;28;20103;-71
2023/05/11 03:25:06;;;;;;;39.22;23.05;;;14.50;99.90;;;;;;5063248;28;20025;-72
2023/05/11 03:27:33;;;;;;;40.70;23.80;;;14.50;99.90;;;;;;5054554;28;20005;-73
2023/05/11 03:30:01;;;;;;;36.78;22.40;;;14.50;99.90;;;;;;5059082;28;20031;-78
2023/05/11 03:32:28;;;;;;;35.78;22.92;;;14.50;99.90;;;;;;5060333;28;20024;-78
2023/05/11 03:34:54;;;;;;;43.92;24.42;;;14.50;99.90;;;;;;5060173;28;20039;-78
2023/05/11 03:37:21;;;;;;;42.05;22.95;;;14.40;99.90;;;;;;5059606;28;20143;-72
2023/05/11 03:39:51;;;;;;;48.67;26.02;;;14.40;99.90;;;;;;5060925;28;20023;-71
2023/05/11 03:42:18;;;;;;;51.83;25.58;;;14.40;99.90;;;;;;5059191;28;20490;-72
2023/05/11 03:44:46;;;;;;;42.67;22.83;;;14.40;99.90;;;;;;5053868;28;20130;-72
2023/05/11 03:47:15;;;;;;;49.17;24.88;;;14.40;99.90;;;;;;5055839;28;20111;-71
2023/05/11 03:49:42;;;;;;;41.78;23.25;;;14.40;99.90;;;;;;5023140;28;20033;-71
2023/05/11 03:52:08;;;;;;;42.60;22.95;;;14.20;99.90;;;;;;5051612;28;20021;-71
2023/05/11 03:54:35;;;;;;;35.88;23.80;;;14.20;99.90;;;;;;5051568;28;20151;-71
2023/05/11 03:57:00;;;;;;;42.08;24.05;;;14.20;99.90;;;;;;5031449;28;20536;-71
2023/05/11 03:59:26;;;;;;;38.70;20.73;;;14.20;99.90;;;;;;5051425;28;20171;-71
2023/05/11 04:01:52;;;;;;;41.28;23.48;;;14.20;99.90;;;;;;5050674;28;20075;-71
2023/05/11 04:04:30;;;;;;;44.63;23.08;;;14.20;99.90;;;;;;5048837;28;20385;-71
2023/05/11 04:06:57;;;;;;;40.13;22.80;;;14.20;99.90;;;;;;5052365;28;20109;-71
2023/05/11 04:09:23;;;;;;;43.15;24.25;;;14.20;99.90;;;;;;5053464;28;20797;-71
2023/05/11 04:11:49;;;;;;;41.97;22.55;;;14.20;99.90;;;;;;5049824;28;20032;-71
2023/05/11 04:14:16;;;;;;;37.90;23.80;;;14.30;99.90;;;;;;5047770;28;20032;-71
2023/05/11 04:16:42;;;;;;;34.78;22.35;;;14.30;99.90;;;;;;5051307;28;20111;-71
2023/05/11 04:19:08;;;;;;;38.83;22.33;;;14.20;99.90;;;;;;5053967;28;20021;-71
2023/05/11 04:21:34;;;;;;;38.45;21.05;;;14.20;99.90;;;;;;5050794;28;20039;-71
2023/05/11 04:24:00;;;;;;;40.60;22.60;;;14.30;99.90;;;;;;5034191;28;20021;-71
2023/05/11 04:26:26;;;;;;;45.63;22.75;;;14.30;99.90;;;;;;5051068;28;20024;-71
2023/05/11 04:28:52;;;;;;;42.47;25.30;;;14.30;99.90;;;;;;5053645;28;20023;-71
2023/05/11 04:31:18;;;;;;;40.78;25.42;;;14.30;99.90;;;;;;5051115;28;20032;-71
2023/05/11 04:33:43;;;;;;;39.67;22.98;;;14.30;99.90;;;;;;5051815;28;20044;-71
2023/05/11 04:36:09;;;;;;;38.78;24.35;;;14.40;99.90;;;;;;5055269;28;20048;-71
2023/05/11 04:38:35;;;;;;;41.38;24.95;;;14.30;99.90;;;;;;5051973;28;20142;-71
2023/05/11 04:41:05;;;;;;;44.72;25.33;;;14.40;99.90;;;;;;5048062;28;20040;-71
2023/05/11 04:43:30;;;;;;;48.53;26.58;;;14.40;99.90;;;;;;5051057;28;20059;-71
2023/05/11 04:45:58;;;;;;;52.70;25.33;;;14.40;99.90;;;;;;5052409;28;20067;-71
2023/05/11 04:48:25;;;;;;;46.75;23.50;;;14.40;99.90;;;;;;5049722;28;20114;-71
2023/05/11 04:50:50;;;;;;;42.88;23.58;;;14.30;99.90;;;;;;5052719;28;20059;-71
2023/05/11 04:53:16;;;;;;;46.67;23.50;;;14.30;99.90;;;;;;5050882;28;20050;-74
2023/05/11 04:55:42;;;;;;;44.85;25.42;;;14.30;99.90;;;;;;5047269;28;20024;-71
2023/05/11 04:58:08;;;;;;;55.80;25.80;;;14.20;99.90;;;;;;5051417;28;20035;-72
2023/05/11 05:00:35;;;;;;;45.30;23.33;;;14.30;99.90;;;;;;5035390;28;20021;-71
2023/05/11 05:03:01;;;;;;;61.35;26.85;;;14.30;99.90;;;;;;5051792;28;20101;-71
2023/05/11 05:05:27;;;;;;;49.38;26.13;;;14.20;99.90;;;;;;5053430;28;20102;-71
2023/05/11 05:07:52;;;;;;;52.05;26.05;;;14.30;99.90;;;;;;5049200;28;20461;-73
2023/05/11 05:10:18;;;;;;;42.85;23.63;;;14.30;99.90;;;;;;5050623;28;20056;-71
2023/05/11 05:12:44;;;;;;;56.17;25.50;;;14.30;99.90;;;;;;5031407;28;22272;-71
2023/05/11 05:15:11;;;;;;;52.22;26.40;;;14.30;99.90;;;;;;5050051;28;20071;-72
2023/05/11 05:17:38;;;;;;;76.80;30.20;;;14.30;99.90;;;;;;5036743;28;20036;-71
2023/05/11 05:20:05;;;;;;;48.95;26.98;;;14.40;99.90;;;;;;5034812;28;20025;-71
2023/05/11 05:22:32;;;;;;;63.95;29.10;;;14.50;99.90;;;;;;5053037;28;20484;-72
2023/05/11 05:24:58;;;;;;;87.05;36.58;;;14.50;99.90;;;;;;5036769;28;20017;-71
2023/05/11 05:27:24;;;;;;;108.07;39.60;;;14.50;99.90;;;;;;5035483;28;20037;-71
2023/05/11 05:29:50;;;;;;;70.60;35.53;;;14.60;99.90;;;;;;5054404;28;20024;-71
2023/05/11 05:32:16;;;;;;;71.07;36.03;;;14.70;99.90;;;;;;5054875;28;20040;-75
2023/05/11 05:34:45;;;;;;;69.10;35.42;;;14.70;99.90;;;;;;5033620;28;20639;-74
2023/05/11 05:37:11;;;;;;;72.53;37.47;;;14.80;99.90;;;;;;5049507;28;20051;-78
2023/05/11 05:39:37;;;;;;;78.40;38.88;;;14.90;99.90;;;;;;5049638;28;20113;-74
2023/05/11 05:42:04;;;;;;;81.65;39.25;;;14.90;99.90;;;;;;5032829;28;20036;-78
2023/05/11 05:44:30;;;;;;;86.40;40.03;;;14.90;99.90;;;;;;5053521;28;20090;-72
2023/05/11 05:46:55;;;;;;;70.13;32.75;;;14.90;99.90;;;;;;5053398;28;22487;-78
2023/05/11 05:49:21;;;;;;;65.65;36.50;;;14.90;99.90;;;;;;5054525;28;20029;-76
2023/05/11 05:51:47;;;;;;;73.82;34.42;;;14.90;99.90;;;;;;5050426;28;20068;-74
2023/05/11 05:54:13;;;;;;;66.80;33.17;;;14.90;99.90;;;;;;5051900;28;20021;-72
2023/05/11 05:56:39;;;;;;;70.38;34.85;;;15.00;99.90;;;;;;5054566;28;20036;-77
2023/05/11 05:59:07;;;;;;;65.45;33.85;;;15.00;99.90;;;;;;5041648;28;20177;-71
2023/05/11 06:01:34;;;;;;;63.83;33.42;;;15.00;99.90;;;;;;5054995;28;20032;-73
2023/05/11 06:04:00;;;;;;;67.78;34.70;;;15.00;99.90;;;;;;5038515;28;20111;-72
2023/05/11 06:06:26;;;;;;;66.07;34.97;;;14.90;99.90;;;;;;5059876;28;20111;-71
2023/05/11 06:08:52;;;;;;;73.40;35.58;;;15.00;99.90;;;;;;5033161;28;20683;-75
2023/05/11 06:11:17;;;;;;;82.32;38.42;;;15.00;99.90;;;;;;5056277;28;20024;-76
2023/05/11 06:13:43;;;;;;;76.60;38.38;;;15.00;99.90;;;;;;5051870;28;20469;-72
2023/05/11 06:16:09;;;;;;;68.40;33.17;;;15.00;99.90;;;;;;5053576;28;20033;-73
2023/05/11 06:18:35;;;;;;;59.65;33.00;;;14.90;99.90;;;;;;5055702;28;20033;-79
2023/05/11 06:21:01;;;;;;;64.68;32.67;;;15.00;99.90;;;;;;5054941;28;20033;-76
2023/05/11 06:23:26;;;;;;;68.07;31.67;;;14.90;99.90;;;;;;5052949;28;20078;-79
2023/05/11 06:25:52;;;;;;;83.40;34.47;;;15.00;99.90;;;;;;5058202;28;20060;-74
2023/05/11 06:28:18;;;;;;;53.67;28.80;;;15.00;99.90;;;;;;5058260;28;20091;-72
2023/05/11 06:30:44;;;;;;;73.07;33.45;;;15.00;99.90;;;;;;5049826;28;20182;-71
2023/05/11 06:33:10;;;;;;;68.43;31.65;;;15.00;99.90;;;;;;5053950;28;20039;-71
2023/05/11 06:35:36;;;;;;;68.07;32.47;;;15.00;99.90;;;;;;5057862;28;20032;-72
2023/05/11 06:38:02;;;;;;;56.67;29.80;;;15.00;99.90;;;;;;5033516;28;20084;-71
2023/05/11 06:40:28;;;;;;;56.90;30.27;;;15.00;99.90;;;;;;5037106;28;20048;-74
2023/05/11 06:42:54;;;;;;;62.88;33.10;;;15.00;99.90;;;;;;5064307;28;20055;-72
2023/05/11 06:45:20;;;;;;;58.65;30.88;;;15.10;99.90;;;;;;5055795;28;20052;-71
2023/05/11 06:47:46;;;;;;;67.72;33.53;;;15.10;99.90;;;;;;5054710;28;20029;-72
2023/05/11 06:50:11;;;;;;;66.00;30.50;;;15.10;99.90;;;;;;5051185;28;20377;-72
2023/05/11 06:52:37;;;;;;;56.50;31.35;;;15.10;99.90;;;;;;5050043;28;20385;-71
2023/05/11 06:55:03;;;;;;;70.03;35.58;;;15.10;99.90;;;;;;5054952;28;20029;-71
2023/05/11 06:57:29;;;;;;;70.30;33.42;;;15.10;99.90;;;;;;5052047;28;20033;-71
2023/05/11 06:59:54;;;;;;;62.20;34.72;;;15.20;99.90;;;;;;5051135;28;20033;-71
2023/05/11 07:02:20;;;;;;;56.65;31.45;;;15.20;99.90;;;;;;5049196;28;20035;-71
2023/05/11 07:04:46;;;;;;;46.55;27.75;;;15.20;99.90;;;;;;5049970;28;20363;-71
2023/05/11 07:07:11;;;;;;;69.18;32.00;;;15.20;99.90;;;;;;5051661;28;20067;-71
2023/05/11 07:09:37;;;;;;;56.13;30.00;;;15.20;99.90;;;;;;5048758;28;20461;-71
2023/05/11 07:12:03;;;;;;;62.55;32.08;;;15.20;99.90;;;;;;5048342;28;20098;-71
2023/05/11 07:14:29;;;;;;;60.95;33.00;;;15.20;99.90;;;;;;5051692;28;20031;-71
2023/05/11 07:16:55;;;;;;;59.55;30.38;;;15.20;99.90;;;;;;5053832;28;20051;-73
2023/05/11 07:19:20;;;;;;;52.97;26.88;;;15.30;99.90;;;;;;5049697;28;20484;-72
2023/05/11 07:21:46;;;;;;;54.40;26.92;;;15.40;99.90;;;;;;5050541;28;20021;-72
2023/05/11 07:24:12;;;;;;;50.42;26.30;;;15.40;99.90;;;;;;5034169;28;20089;-72
2023/05/11 07:26:38;;;;;;;66.50;31.25;;;15.50;99.90;;;;;;5053327;28;20029;-71
2023/05/11 07:29:03;;;;;;;48.35;26.13;;;15.50;99.90;;;;;;5052937;28;20021;-73
2023/05/11 07:31:29;;;;;;;53.85;29.90;;;15.50;99.90;;;;;;5050411;28;20119;-72
2023/05/11 07:33:55;;;;;;;62.33;28.10;;;15.40;99.90;;;;;;5053569;28;20013;-72
2023/05/11 07:36:21;;;;;;;62.03;28.00;;;15.40;99.90;;;;;;5031815;28;20037;-73
2023/05/11 07:38:47;;;;;;;57.40;29.80;;;15.40;99.90;;;;;;5048342;28;20035;-73
2023/05/11 07:41:13;;;;;;;52.08;27.45;;;15.30;99.90;;;;;;5048938;28;20047;-72
2023/05/11 07:43:38;;;;;;;50.28;26.25;;;15.40;99.90;;;;;;5056352;28;20057;-73
2023/05/11 07:46:04;;;;;;;59.78;26.70;;;15.40;99.90;;;;;;5052092;28;20806;-73
2023/05/11 07:48:30;;;;;;;53.92;26.90;;;15.40;99.90;;;;;;5049932;28;20528;-71
2023/05/11 07:50:56;;;;;;;53.58;26.75;;;15.30;99.90;;;;;;5049972;28;20104;-72
2023/05/11 07:53:21;;;;;;;49.38;23.35;;;15.30;99.90;;;;;;5030257;28;21002;-72
2023/05/11 07:55:47;;;;;;;66.10;25.45;;;15.40;99.90;;;;;;5049438;28;20067;-74
2023/05/11 07:58:13;;;;;;;48.65;24.75;;;15.40;99.90;;;;;;5053685;28;20577;-72
2023/05/11 08:00:38;;;;;;;49.75;25.83;;;15.40;99.90;;;;;;5048869;28;20560;-72
2023/05/11 08:03:05;;;;;;;58.08;24.60;;;15.40;99.90;;;;;;5050709;28;20427;-72
2023/05/11 08:05:36;;;;;;;52.25;27.02;;;15.50;99.90;;;;;;5030132;28;20103;-72
2023/05/11 08:08:03;;;;;;;55.60;27.63;;;15.40;99.90;;;;;;5057368;28;20017;-72
2023/05/11 08:10:30;;;;;;;50.78;24.90;;;15.40;99.90;;;;;;5055078;28;20032;-72
2023/05/11 08:12:56;;;;;;;58.08;26.45;;;15.50;99.90;;;;;;5049934;28;20541;-72
2023/05/11 08:15:21;;;;;;;56.05;25.65;;;15.50;99.90;;;;;;5047265;28;20025;-72
2023/05/11 08:17:47;;;;;;;49.25;26.13;;;15.40;99.90;;;;;;5056669;28;20048;-71
2023/05/11 08:20:14;;;;;;;44.78;24.75;;;15.50;99.90;;;;;;5061951;28;20071;-72
2023/05/11 08:22:40;;;;;;;49.75;27.13;;;15.50;99.90;;;;;;5051581;28;20025;-72
2023/05/11 08:25:06;;;;;;;50.50;25.60;;;15.50;99.90;;;;;;5049220;28;20427;-72
2023/05/11 08:27:32;;;;;;;48.28;26.30;;;15.40;99.90;;;;;;5049621;28;20024;-71
2023/05/11 08:29:58;;;;;;;53.15;25.77;;;15.40;99.90;;;;;;5053727;28;20126;-71
2023/05/11 08:32:23;;;;;;;54.63;25.92;;;15.50;99.90;;;;;;5048455;28;20032;-71
2023/05/11 08:34:49;;;;;;;50.88;27.90;;;15.50;99.90;;;;;;5055887;28;20783;-72
2023/05/11 08:37:15;;;;;;;45.75;24.30;;;15.60;99.90;;;;;;5048546;28;20040;-72
2023/05/11 08:39:41;;;;;;;49.50;24.90;;;15.60;99.90;;;;;;5047229;28;20029;-72
2023/05/11 08:42:08;;;;;;;58.72;29.80;;;15.70;99.90;;;;;;5053228;28;20035;-72
2023/05/11 08:44:36;;;;;;;52.78;27.13;;;15.80;99.90;;;;;;5037753;28;20079;-72
2023/05/11 08:47:04;;;;;;;47.92;25.10;;;15.60;99.90;;;;;;5054274;28;20127;-72
2023/05/11 08:49:31;;;;;;;51.28;25.00;;;15.70;99.90;;;;;;5049604;28;20016;-71
2023/05/11 08:51:57;;;;;;;47.47;25.15;;;15.70;99.90;;;;;;5051070;28;20122;-72
2023/05/11 08:54:22;;;;;;;52.20;26.70;;;15.60;99.90;;;;;;5037893;28;20057;-73
2023/05/11 08:56:50;;;;;;;48.08;24.98;;;15.70;99.90;;;;;;5040915;28;20131;-73
2023/05/11 08:59:17;;;;;;;48.85;23.85;;;15.60;99.90;;;;;;5048579;28;20039;-72
2023/05/11 09:01:44;;;;;;;54.90;26.80;;;15.70;99.90;;;;;;5054231;28;20032;-72
2023/05/11 09:04:12;;;;;;;54.40;27.25;;;15.80;99.90;;;;;;5054565;28;20022;-74
2023/05/11 09:06:39;;;;;;;57.03;26.65;;;15.90;99.90;;;;;;5053376;28;20119;-72
2023/05/11 09:09:05;;;;;;;58.28;26.75;;;15.90;99.90;;;;;;5047496;28;20465;-73
2023/05/11 09:11:31;;;;;;;54.60;25.98;;;15.90;99.90;;;;;;5050180;28;20027;-72
2023/05/11 09:13:57;;;;;;;48.70;25.30;;;15.90;99.90;;;;;;5049998;28;20116;-72
2023/05/11 09:16:23;;;;;;;54.78;24.58;;;15.90;99.90;;;;;;5044205;28;20106;-72
2023/05/11 09:18:49;;;;;;;71.30;28.02;;;15.80;99.90;;;;;;5055393;28;20475;-72
2023/05/11 09:21:16;;;;;;;56.70;27.63;;;15.80;99.90;;;;;;5063024;28;20036;-72
2023/05/11 09:23:42;;;;;;;56.95;25.15;;;15.90;99.90;;;;;;5061442;28;20012;-72
2023/05/11 09:26:15;;;;;;;51.53;25.67;;;15.90;99.90;;;;;;5060672;28;20449;-72
2023/05/11 09:28:48;;;;;;;49.55;23.08;;;16.00;99.90;;;;;;5041645;28;20086;-73
2023/05/11 09:31:38;;;;;;;37.30;20.33;;;16.10;99.90;;;;;;5067794;28;20016;-72
2023/05/11 09:34:13;;;;;;;37.50;20.75;;;16.30;99.90;;;;;;5069657;28;20423;-72
2023/05/11 09:36:40;;;;;;;46.35;20.52;;;16.30;99.90;;;;;;5062659;28;20489;-75
2023/05/11 09:39:06;;;;;;;43.67;20.35;;;16.30;99.90;;;;;;5056279;28;20048;-75
2023/05/11 09:41:32;;;;;;;74.85;25.75;;;16.40;99.90;;;;;;5049571;28;20044;-73
2023/05/11 09:44:12;;;;;;;53.88;24.33;;;16.40;99.90;;;;;;5049017;28;20025;-74
2023/05/11 09:46:40;;;;;;;54.97;23.17;;;16.30;99.90;;;;;;5061114;28;20040;-74
2023/05/11 09:49:07;;;;;;;40.22;23.27;;;16.30;99.90;;;;;;5071481;28;20510;-74
2023/05/11 09:51:35;;;;;;;40.70;21.98;;;16.40;99.90;;;;;;5069749;28;20054;-74
2023/05/11 09:54:21;;;;;;;42.33;24.15;;;16.20;99.90;;;;;;5071865;28;20063;-75
2023/05/11 09:56:57;;;;;;;39.30;22.48;;;16.30;99.90;;;;;;5071944;28;20036;-74
2023/05/11 09:59:40;;;;;;;45.28;24.00;;;16.30;99.90;;;;;;5071734;28;20017;-75
2023/05/11 10:02:14;;;;;;;;;;;16.40;99.90;;;;;;5072086;28;20032;-74
2023/05/11 10:04:41;;;;;;;44.05;21.40;;;16.40;99.90;;;;;;5073925;28;20005;-73
2023/05/11 10:07:06;;;;;;;31.75;18.70;;;16.50;99.90;;;;;;5074589;28;20017;-74
2023/05/11 10:09:33;;;;;;;56.40;20.30;;;16.50;99.90;;;;;;5066197;28;20025;-73
2023/05/11 10:12:00;;;;;;;44.40;20.50;;;16.50;99.90;;;;;;5070808;28;20048;-74
2023/05/11 10:14:28;;;;;;;63.10;21.58;;;16.40;99.90;;;;;;5073431;28;20036;-73
2023/05/11 10:16:57;;;;;;;41.65;19.67;;;16.60;99.90;;;;;;5074609;28;20379;-73
2023/05/11 10:19:23;;;;;;;54.28;21.50;;;16.60;99.90;;;;;;5073573;28;20021;-74
2023/05/11 10:21:51;;;;;;;38.08;19.70;;;16.60;99.90;;;;;;5067913;28;20385;-73
2023/05/11 10:24:17;;;;;;;65.68;23.17;;;16.50;99.90;;;;;;5054163;28;20029;-74
2023/05/11 10:26:44;;;;;;;45.95;21.00;;;16.50;99.90;;;;;;5058581;28;20020;-74
2023/05/11 10:29:10;;;;;;;44.22;20.73;;;16.60;99.90;;;;;;5055720;28;20172;-74
2023/05/11 10:31:37;;;;;;;41.38;18.75;;;16.60;99.90;;;;;;5094724;28;20541;-73
2023/05/11 10:34:03;;;;;;;41.20;18.45;;;16.60;99.90;;;;;;5093664;28;20020;-74
2023/05/11 10:36:29;;;;;;;34.70;18.25;;;16.60;99.90;;;;;;5093010;28;20024;-73
2023/05/11 10:38:55;;;;;;;30.48;17.30;;;16.70;99.90;;;;;;5077613;28;20035;-74
2023/05/11 10:41:45;;;;;;;32.80;17.58;;;16.80;99.90;;;;;;5073125;28;20032;-73
2023/05/11 10:44:35;;;;;;;35.75;16.25;;;16.90;99.90;;;;;;5074304;28;20116;-73
2023/05/11 10:47:36;;;;;;;36.40;17.70;;;17.00;99.90;;;;;;5055852;28;20377;-74
2023/05/11 10:50:44;;;;;;;35.78;19.13;;;17.10;99.90;;;;;;5039694;28;20480;-75
2023/05/11 10:53:19;;;;;;;31.13;17.73;;;17.20;99.90;;;;;;5052232;28;20091;-74
2023/05/11 10:56:05;;;;;;;34.95;17.48;;;17.20;99.90;;;;;;5062068;28;20376;-74
2023/05/11 10:59:04;;;;;;;33.70;18.13;;;17.30;99.90;;;;;;5061328;28;20127;-74
2023/05/11 11:01:40;;;;;;;38.47;17.90;;;17.40;99.90;;;;;;5064391;28;20029;-73
2023/05/11 11:04:11;;;;;;;34.17;18.10;;;17.50;99.90;;;;;;5064719;28;20025;-74
2023/05/11 11:06:39;;;;;;;38.80;18.83;;;17.50;99.90;;;;;;5064109;28;20028;-74
2023/05/11 11:09:07;;;;;;;36.20;16.40;;;17.50;99.90;;;;;;5046551;28;20465;-74
2023/05/11 11:11:41;;;;;;;38.35;17.83;;;17.60;99.90;;;;;;5062299;28;20103;-74
2023/05/11 11:14:09;;;;;;;28.85;16.73;;;17.80;99.90;;;;;;5042352;28;20043;-74
2023/05/11 11:16:36;;;;;;;30.05;16.42;;;18.00;99.90;;;;;;5058018;28;20033;-74
2023/05/11 11:19:29;;;;;;;32.33;17.55;;;17.90;99.90;;;;;;5068665;28;20097;-75
2023/05/11 11:22:01;;;;;;;29.63;16.60;;;17.90;99.90;;;;;;5072521;28;20025;-74
2023/05/11 11:24:37;;;;;;;36.55;18.38;;;18.00;99.90;;;;;;5073530;28;20039;-74
2023/05/11 11:27:07;;;;;;;31.17;16.25;;;18.30;99.90;;;;;;5073594;28;20027;-74
2023/05/11 11:29:34;;;;;;;37.63;18.38;;;18.30;99.90;;;;;;5073447;28;20054;-74
2023/05/11 11:32:20;;;;;;;64.45;20.83;;;18.40;99.90;;;;;;5073663;28;20549;-75
2023/05/11 11:34:47;;;;;;;31.88;15.40;;;18.30;99.90;;;;;;5056461;28;20503;-75
2023/05/11 11:37:13;;;;;;;119.68;23.58;;;18.40;99.90;;;;;;5072877;28;20472;-75
2023/05/11 11:39:42;;;;;;;37.65;15.82;;;18.30;99.90;;;;;;5073637;28;20024;-76
2023/05/11 11:42:09;;;;;;;25.48;14.07;;;18.30;99.90;;;;;;5072404;28;20388;-75
2023/05/11 11:44:36;;;;;;;26.08;16.52;;;18.30;99.90;;;;;;5055247;28;20027;-76
2023/05/11 11:47:20;;;;;;;23.67;13.65;;;18.30;99.90;;;;;;5073296;28;20059;-75
2023/05/11 11:49:46;;;;;;;23.33;14.18;;;18.40;99.90;;;;;;5073289;28;20032;-75
2023/05/11 11:52:30;;;;;;;28.63;14.07;;;18.40;99.90;;;;;;5072152;28;20039;-75
2023/05/11 11:55:02;;;;;;;23.20;12.57;;;18.50;99.90;;;;;;5073111;28;20024;-74
2023/05/11 11:57:34;;;;;;;25.63;11.77;;;18.70;99.90;;;;;;5072748;28;20370;-75
2023/05/11 12:00:11;;;;;;;26.17;13.20;;;18.80;99.90;;;;;;5055429;28;20035;-75
2023/05/11 12:02:42;;;;;;;20.02;10.82;;;18.90;99.90;;;;;;5072029;28;20031;-75
2023/05/11 12:05:17;;;;;;;22.55;13.77;;;18.80;99.90;;;;;;5071651;28;20024;-75
2023/05/11 12:07:45;;;;;;;24.15;13.27;;;19.00;99.90;;;;;;5071293;28;20025;-75
2023/05/11 12:10:12;;;;;;;29.83;12.70;;;19.10;99.90;;;;;;5072950;28;20028;-75
2023/05/11 12:12:38;;;;;;;18.20;11.05;;;19.10;99.90;;;;;;5071844;28;20028;-75
2023/05/11 12:15:06;;;;;;;21.17;12.35;;;19.20;99.90;;;;;;5072738;28;20692;-75
2023/05/11 12:17:33;;;;;;;27.63;13.75;;;19.10;99.90;;;;;;5069184;28;20766;-75
2023/05/11 12:20:16;;;;;;;25.38;11.93;;;19.00;99.90;;;;;;5052148;28;20110;-75
2023/05/11 12:22:47;;;;;;;32.65;16.75;;;18.90;99.90;;;;;;5045671;28;20433;-76
2023/05/11 12:25:17;;;;;;;31.35;17.45;;;18.80;99.90;;;;;;5051281;28;20021;-76
2023/05/11 12:27:50;;;;;;;26.48;15.32;;;18.80;99.90;;;;;;5038274;28;21705;-76
2023/05/11 12:30:34;;;;;;;33.13;16.38;;;18.80;99.90;;;;;;5048768;28;20025;-75
2023/05/11 12:33:03;;;;;;;32.15;16.83;;;18.80;99.90;;;;;;5056180;28;22796;-76
2023/05/11 12:35:33;;;;;;;31.45;15.57;;;18.90;99.90;;;;;;5055712;28;20025;-75